createdAt,value
2022-10-24T00:00:15.638Z,95178.50
2022-10-24T00:02:42.393Z,95173.94
2022-10-24T00:05:11.834Z,95169.34
2022-10-24T00:07:38.443Z,95169.28
2022-10-24T00:10:05.594Z,95192.59
2022-10-24T00:12:32.190Z,95187.75
2022-10-24T00:14:59.042Z,95211.06
2022-10-24T00:17:25.579Z,95219.06
2022-10-24T00:19:54.220Z,95224.53
2022-10-24T00:22:21.188Z,95238.00
2022-10-24T00:24:47.745Z,95229.56
2022-10-24T00:27:14.293Z,95232.19
2022-10-24T00:29:40.849Z,95226.19
2022-10-24T00:32:07.441Z,95231.84
2022-10-24T00:34:34.016Z,95218.78
2022-10-24T00:37:00.536Z,95207.84
2022-10-24T00:39:27.111Z,95201.41
2022-10-24T00:41:55.016Z,95195.41
2022-10-24T00:44:29.675Z,95181.94
2022-10-24T00:47:04.981Z,95185.03
2022-10-24T00:49:50.117Z,95186.81
2022-10-24T00:52:22.280Z,95164.47
2022-10-24T00:54:50.645Z,95160.31
2022-10-24T00:57:25.111Z,95170.38
2022-10-24T00:59:56.700Z,95180.47
2022-10-24T01:02:23.684Z,95172.69
2022-10-24T01:04:50.224Z,95165.84
2022-10-24T01:08:00.021Z,95145.09
2022-10-24T01:10:47.040Z,95120.31
2022-10-24T01:13:55.430Z,95118.94
2022-10-24T01:16:31.244Z,95120.25
2022-10-24T01:19:16.327Z,95102.78
2022-10-24T01:22:12.520Z,95106.03
2022-10-24T01:25:02.048Z,95101.81
2022-10-24T01:27:42.006Z,95112.72
2022-10-24T01:30:11.356Z,95110.78
2022-10-24T01:33:16.456Z,95104.03
2022-10-24T01:35:54.257Z,95097.19
2022-10-24T01:38:23.805Z,95094.59
2022-10-24T01:40:59.301Z,95110.66
2022-10-24T01:43:34.567Z,95093.31
2022-10-24T01:46:06.953Z,95059.16
2022-10-24T01:48:40.242Z,95031.97
2022-10-24T01:51:08.856Z,95040.38
2022-10-24T01:53:36.767Z,95020.78
2022-10-24T01:56:03.514Z,95011.84
2022-10-24T01:58:30.101Z,95020.75
2022-10-24T02:01:01.433Z,95023.81
2022-10-24T02:03:36.994Z,95028.47
2022-10-24T02:06:10.689Z,95009.19
2022-10-24T02:08:44.231Z,95001.25
2022-10-24T02:11:11.236Z,95004.63
2022-10-24T02:14:02.710Z,94988.06
2022-10-24T02:16:29.929Z,94989.34
2022-10-24T02:18:57.766Z,95003.09
2022-10-24T02:21:35.455Z,94988.50
2022-10-24T02:24:18.868Z,94992.94
2022-10-24T02:26:48.346Z,94984.41
2022-10-24T02:29:23.601Z,94984.91
2022-10-24T02:31:57.578Z,94979.53
2022-10-24T02:34:28.251Z,94983.44
2022-10-24T02:36:57.144Z,94975.94
2022-10-24T02:39:25.338Z,94985.47
2022-10-24T02:41:55.596Z,94999.53
2022-10-24T02:44:24.642Z,94990.09
2022-10-24T02:46:54.529Z,94995.94
2022-10-24T02:49:21.293Z,94992.34
2022-10-24T02:51:49.975Z,94986.78
2022-10-24T02:54:16.630Z,94980.28
2022-10-24T02:56:50.703Z,94977.69
2022-10-24T02:59:17.404Z,94990.84
2022-10-24T03:01:44.049Z,94995.63
2022-10-24T03:04:10.630Z,95004.72
2022-10-24T03:06:37.375Z,95004.63
2022-10-24T03:09:04.113Z,95014.34
2022-10-24T03:11:30.751Z,94991.19
2022-10-24T03:13:57.369Z,94990.09
2022-10-24T03:16:24.948Z,94998.94
2022-10-24T03:18:51.566Z,94997.34
2022-10-24T03:21:18.115Z,94999.53
2022-10-24T03:23:44.654Z,95000.25
2022-10-24T03:26:11.186Z,95003.06
2022-10-24T03:28:37.885Z,95012.91
2022-10-24T03:31:05.168Z,95019.09
2022-10-24T03:33:32.382Z,95016.94
2022-10-24T03:35:58.956Z,95022.50
2022-10-24T03:38:26.065Z,95017.53
2022-10-24T03:40:52.783Z,95007.94
2022-10-24T03:43:20.130Z,95011.69
2022-10-24T03:45:46.786Z,95022.84
2022-10-24T03:48:13.823Z,95018.94
2022-10-24T03:50:40.443Z,95011.84
2022-10-24T03:53:07.139Z,95035.53
2022-10-24T03:55:34.272Z,95043.78
2022-10-24T03:58:00.828Z,95039.69
2022-10-24T04:00:29.002Z,95040.16
2022-10-24T04:02:56.197Z,95041.44
2022-10-24T04:05:22.797Z,95039.63
2022-10-24T04:07:49.477Z,95048.44
2022-10-24T04:10:16.249Z,95043.75
2022-10-24T04:12:42.839Z,95048.97
2022-10-24T04:15:09.829Z,95050.59
2022-10-24T04:17:36.550Z,95054.75
2022-10-24T04:20:03.591Z,95045.84
2022-10-24T04:22:30.143Z,95045.78
2022-10-24T04:24:56.746Z,95051.78
2022-10-24T04:27:23.292Z,95047.44
2022-10-24T04:29:49.880Z,95053.78
2022-10-24T04:32:16.428Z,95044.84
2022-10-24T04:34:42.999Z,95038.19
2022-10-24T04:37:09.626Z,95049.09
2022-10-24T04:39:36.181Z,95048.72
2022-10-24T04:42:02.803Z,95054.34
2022-10-24T04:44:29.467Z,95041.22
2022-10-24T04:46:56.052Z,95041.66
2022-10-24T04:49:22.688Z,95048.16
2022-10-24T04:51:49.255Z,95041.34
2022-10-24T04:54:15.828Z,95047.28
2022-10-24T04:56:42.371Z,95048.53
2022-10-24T04:59:08.938Z,95043.97
2022-10-24T05:01:35.508Z,95034.69
2022-10-24T05:06:34.091Z,95050.44
2022-10-24T05:09:00.711Z,95055.78
2022-10-24T05:11:27.257Z,95053.38
2022-10-24T05:13:53.809Z,95052.44
2022-10-24T05:16:20.456Z,95053.25
2022-10-24T05:18:47.035Z,95069.47
2022-10-24T05:21:13.559Z,95078.19
2022-10-24T05:23:40.212Z,95079.22
2022-10-24T05:26:07.099Z,95064.13
2022-10-24T05:28:34.020Z,95073.13
2022-10-24T05:31:00.783Z,95084.66
2022-10-24T05:33:27.608Z,95082.66
2022-10-24T05:35:54.238Z,95089.63
2022-10-24T05:38:21.172Z,95093.50
2022-10-24T05:40:49.222Z,95097.38
2022-10-24T05:43:16.417Z,95096.88
2022-10-24T05:45:43.795Z,95099.16
2022-10-24T05:48:10.716Z,95096.09
2022-10-24T05:50:37.286Z,95103.72
2022-10-24T05:53:04.188Z,95104.53
2022-10-24T05:55:31.347Z,95097.38
2022-10-24T05:57:58.011Z,95097.72
2022-10-24T06:00:24.545Z,95090.38
2022-10-24T06:02:51.177Z,95097.53
2022-10-24T06:05:18.530Z,95103.44
2022-10-24T06:07:46.076Z,95090.06
2022-10-24T06:10:14.295Z,95096.22
2022-10-24T06:12:41.508Z,95087.63
2022-10-24T06:15:09.104Z,95095.28
2022-10-24T06:17:36.420Z,95093.78
2022-10-24T06:20:04.092Z,95095.28
2022-10-24T06:22:30.716Z,95091.03
2022-10-24T06:24:57.385Z,95085.63
2022-10-24T06:27:24.308Z,95089.28
2022-10-24T06:29:50.927Z,95087.81
2022-10-24T06:32:17.486Z,95070.03
2022-10-24T06:34:44.056Z,95051.22
2022-10-24T06:37:10.642Z,95042.81
2022-10-24T06:39:37.204Z,95058.06
2022-10-24T06:42:03.908Z,95083.84
2022-10-24T06:44:31.242Z,95078.16
2022-10-24T06:46:57.803Z,95081.69
2022-10-24T06:49:24.367Z,95089.22
2022-10-24T06:51:51.011Z,95089.88
2022-10-24T06:54:17.581Z,95090.25
2022-10-24T06:56:44.211Z,95080.16
2022-10-24T06:59:13.768Z,95082.38
2022-10-24T07:01:40.507Z,95082.28
2022-10-24T07:04:07.739Z,95083.59
2022-10-24T07:06:34.949Z,95091.38
2022-10-24T07:09:03.495Z,95094.28
2022-10-24T07:11:30.446Z,95108.28
2022-10-24T07:14:00.100Z,95107.19
2022-10-24T07:16:28.550Z,95094.34
2022-10-24T07:18:55.111Z,95094.81
2022-10-24T07:21:24.693Z,95096.78
2022-10-24T07:23:52.172Z,95106.53
2022-10-24T07:26:19.914Z,95109.47
2022-10-24T07:28:47.807Z,95105.25
2022-10-24T07:31:17.844Z,95112.25
2022-10-24T07:33:44.435Z,95108.19
2022-10-24T07:36:19.856Z,95113.38
2022-10-24T07:38:48.680Z,95120.31
2022-10-24T07:41:15.432Z,95131.97
2022-10-24T07:43:42.356Z,95127.06
2022-10-24T07:46:11.813Z,95122.97
2022-10-24T07:48:39.869Z,95126.50
2022-10-24T07:51:08.490Z,95128.16
2022-10-24T07:53:36.307Z,95123.91
2022-10-24T07:56:08.406Z,95123.91
2022-10-24T07:58:38.868Z,95123.28
2022-10-24T08:01:17.794Z,95126.50
2022-10-24T08:03:44.496Z,95131.41
2022-10-24T08:06:14.357Z,95118.44
2022-10-24T08:08:41.543Z,95128.75
2022-10-24T08:11:14.016Z,95121.63
2022-10-24T08:13:40.654Z,95114.19
2022-10-24T08:16:12.623Z,95125.16
2022-10-24T08:18:40.115Z,95123.06
2022-10-24T08:21:12.594Z,95130.06
2022-10-24T08:23:43.249Z,95131.84
2022-10-24T08:26:13.178Z,95124.34
2022-10-24T08:28:39.888Z,95131.81
2022-10-24T08:31:12.890Z,95130.00
2022-10-24T08:33:40.079Z,95129.03
2022-10-24T08:36:15.744Z,95132.91
2022-10-24T08:38:42.330Z,95139.06
2022-10-24T08:41:15.645Z,95138.09
2022-10-24T08:43:42.516Z,95134.56
2022-10-24T08:46:18.331Z,95139.06
2022-10-24T08:48:54.900Z,95140.09
2022-10-24T08:51:41.905Z,95132.53
2022-10-24T08:54:15.639Z,95138.72
2022-10-24T08:56:42.471Z,95135.94
2022-10-24T08:59:12.529Z,95142.56
2022-10-24T09:01:53.032Z,95147.94
2022-10-24T09:04:24.164Z,95146.63
2022-10-24T09:06:53.212Z,95140.97
2022-10-24T09:09:19.791Z,95147.00
2022-10-24T09:11:59.733Z,95135.16
2022-10-24T09:14:32.026Z,95133.53
2022-10-24T09:17:20.983Z,95128.84
2022-10-24T09:20:01.466Z,95137.63
2022-10-24T09:22:32.040Z,95141.34
2022-10-24T09:25:03.094Z,95148.69
2022-10-24T09:27:35.553Z,95144.13
2022-10-24T09:30:04.689Z,95139.91
2022-10-24T09:32:33.324Z,95139.75
2022-10-24T09:35:08.938Z,95136.16
2022-10-24T09:37:42.750Z,95138.75
2022-10-24T09:40:20.283Z,95135.78
2022-10-24T09:42:55.759Z,95131.88
2022-10-24T09:45:34.576Z,95131.72
2022-10-24T09:48:06.463Z,95135.47
2022-10-24T09:50:35.410Z,95150.72
2022-10-24T09:53:04.205Z,95146.84
2022-10-24T09:55:31.901Z,95152.38
2022-10-24T09:58:04.019Z,95146.44
2022-10-24T10:00:34.378Z,95146.25
2022-10-24T10:03:23.940Z,95136.19
2022-10-24T10:05:54.242Z,95149.53
2022-10-24T10:08:23.485Z,95142.88
2022-10-24T10:11:01.348Z,95143.22
2022-10-24T10:13:30.122Z,95145.00
2022-10-24T10:16:03.829Z,95144.19
2022-10-24T10:18:39.187Z,95154.06
2022-10-24T10:21:07.778Z,95152.28
2022-10-24T10:23:39.266Z,95155.03
2022-10-24T10:26:11.722Z,95159.91
2022-10-24T10:29:00.484Z,95165.09
2022-10-24T10:31:38.006Z,95168.34
2022-10-24T10:34:17.408Z,95173.22
2022-10-24T10:36:52.361Z,95166.94
2022-10-24T10:39:45.163Z,95173.91
2022-10-24T10:42:34.541Z,95177.63
2022-10-24T10:45:35.527Z,95173.91
2022-10-24T10:48:15.653Z,95184.78
2022-10-24T10:50:55.520Z,95197.91
2022-10-24T10:53:52.871Z,95196.94
2022-10-24T10:56:37.660Z,95205.53
2022-10-24T10:59:29.666Z,95205.84
2022-10-24T11:02:17.817Z,95204.38
2022-10-24T11:05:11.079Z,95198.66
2022-10-24T11:08:02.579Z,95198.19
2022-10-24T11:10:35.237Z,95211.16
2022-10-24T11:13:07.465Z,95208.25
2022-10-24T11:15:40.194Z,95211.97
2022-10-24T11:18:20.754Z,95213.13
2022-10-24T11:20:53.806Z,95219.78
2022-10-24T11:23:37.418Z,95213.97
2022-10-24T11:26:16.210Z,95202.97
2022-10-24T11:29:08.239Z,95212.03
2022-10-24T11:31:42.258Z,95209.09
2022-10-24T11:34:26.852Z,95208.44
2022-10-24T11:37:05.607Z,95200.53
2022-10-24T11:39:59.567Z,95206.38
2022-10-24T11:42:35.169Z,95215.63
2022-10-24T11:45:17.878Z,95216.91
2022-10-24T11:47:50.607Z,95237.66
2022-10-24T11:50:34.594Z,95238.59
2022-10-24T11:53:13.475Z,95248.34
2022-10-24T11:55:47.273Z,95246.22
2022-10-24T11:58:22.094Z,95242.03
2022-10-24T12:00:51.490Z,95237.31
2022-10-24T12:03:44.904Z,95228.56
2022-10-24T12:07:04.204Z,95213.19
2022-10-24T12:09:45.094Z,95220.13
2022-10-24T12:12:35.830Z,95207.69
2022-10-24T12:15:05.391Z,95208.59
2022-10-24T12:18:04.275Z,95193.22
2022-10-24T12:20:32.238Z,95195.03
2022-10-24T12:23:01.314Z,95206.69
2022-10-24T12:25:33.169Z,95209.94
2022-10-24T12:28:17.981Z,95220.63
2022-10-24T12:31:08.716Z,95212.84
2022-10-24T12:33:42.763Z,95210.91
2022-10-24T12:36:09.810Z,95226.44
2022-10-24T12:38:36.418Z,95220.63
2022-10-24T12:41:31.696Z,95229.38
2022-10-24T12:44:24.862Z,95227.28
2022-10-24T12:46:51.370Z,95227.28
2022-10-24T12:49:26.424Z,95237.00
2022-10-24T12:51:53.370Z,95234.72
2022-10-24T12:54:38.192Z,95226.78
2022-10-24T12:57:04.664Z,95217.06
2022-10-24T12:59:33.574Z,95218.50
2022-10-24T13:02:21.091Z,95213.00
2022-10-24T13:05:26.050Z,95201.50
2022-10-24T13:08:20.022Z,95197.16
2022-10-24T13:10:55.700Z,95190.97
2022-10-24T13:13:48.082Z,95177.50
2022-10-24T13:16:24.470Z,95173.97
2022-10-24T13:19:06.272Z,95178.16
2022-10-24T13:24:16.689Z,95154.16
2022-10-24T13:26:46.254Z,95135.72
2022-10-24T13:29:36.252Z,95134.09
2022-10-24T13:32:05.744Z,95127.94
2022-10-24T13:34:38.043Z,95141.84
2022-10-24T13:37:20.364Z,95147.84
2022-10-24T13:39:49.660Z,95158.06
2022-10-24T13:42:24.667Z,95167.13
2022-10-24T13:44:55.973Z,95159.03
2022-10-24T13:47:41.750Z,95145.78
2022-10-24T13:50:22.989Z,95136.22
2022-10-24T13:52:57.727Z,95134.56
2022-10-24T13:55:32.949Z,95155.00
2022-10-24T13:58:08.461Z,95164.69
2022-10-24T14:00:39.144Z,95143.97
2022-10-24T14:03:19.034Z,95150.94
2022-10-24T14:05:45.550Z,95155.94
2022-10-24T14:08:20.648Z,95159.69
2022-10-24T14:10:47.474Z,95163.06
2022-10-24T14:13:17.550Z,95159.69
2022-10-24T14:15:50.189Z,95158.38
2022-10-24T14:20:52.275Z,95144.44
2022-10-24T14:23:37.358Z,95135.53
2022-10-24T14:26:09.641Z,95129.25
2022-10-24T14:28:45.003Z,95095.41
2022-10-24T14:31:25.452Z,95100.91
2022-10-24T14:33:56.142Z,95086.66
2022-10-24T14:36:28.999Z,95094.91
2022-10-24T14:38:58.675Z,95112.53
2022-10-24T14:41:30.866Z,95097.00
2022-10-24T14:43:58.880Z,95100.09
2022-10-24T14:46:39.310Z,95119.34
2022-10-24T14:49:27.383Z,95119.34
2022-10-24T14:52:00.675Z,95121.78
2022-10-24T14:54:32.325Z,95124.53
2022-10-24T14:57:00.794Z,95141.03
2022-10-24T14:59:36.109Z,95126.47
2022-10-24T15:02:07.841Z,95126.59
2022-10-24T15:04:45.740Z,95130.19
2022-10-24T15:07:14.149Z,95124.53
2022-10-24T15:09:56.809Z,95116.75
2022-10-24T15:12:27.191Z,95093.44
2022-10-24T15:14:54.364Z,95117.72
2022-10-24T15:17:32.717Z,95127.28
2022-10-24T15:20:02.734Z,95126.13
2022-10-24T15:22:33.037Z,95122.41
2022-10-24T15:25:02.519Z,95123.84
2022-10-24T15:27:41.180Z,95124.03
2022-10-24T15:30:17.650Z,95132.94
2022-10-24T15:32:44.497Z,95139.56
2022-10-24T15:35:12.235Z,95143.75
2022-10-24T15:37:38.872Z,95141.66
2022-10-24T15:40:13.515Z,95145.06
2022-10-24T15:42:40.100Z,95142.75
2022-10-24T15:45:14.275Z,95139.22
2022-10-24T15:47:40.912Z,95143.88
2022-10-24T15:50:10.365Z,95147.13
2022-10-24T15:52:37.047Z,95145.34
2022-10-24T15:55:03.801Z,95144.25
2022-10-24T15:57:30.352Z,95143.44
2022-10-24T15:59:57.698Z,95150.56
2022-10-24T16:02:24.903Z,95151.34
2022-10-24T16:04:51.511Z,95155.41
2022-10-24T16:07:18.220Z,95147.69
2022-10-24T16:09:44.810Z,95153.16
2022-10-24T16:12:12.570Z,95148.97
2022-10-24T16:14:39.195Z,95152.00
2022-10-24T16:17:05.763Z,95141.34
2022-10-24T16:19:32.299Z,95136.84
2022-10-24T16:21:58.949Z,95143.81
2022-10-24T16:24:26.437Z,95149.94
2022-10-24T16:26:53.448Z,95152.34
2022-10-24T16:29:20.030Z,95160.13
2022-10-24T16:31:49.043Z,95160.63
2022-10-24T16:34:15.614Z,95160.13
2022-10-24T16:36:42.410Z,95171.31
2022-10-24T16:39:18.110Z,95169.19
2022-10-24T16:41:47.648Z,95170.50
2022-10-24T16:44:14.558Z,95176.63
2022-10-24T16:46:41.220Z,95175.19
2022-10-24T16:49:07.779Z,95168.03
2022-10-24T16:51:34.421Z,95169.03
2022-10-24T16:54:02.607Z,95170.63
2022-10-24T16:56:30.109Z,95170.63
2022-10-24T16:58:56.732Z,95175.78
2022-10-24T17:01:23.471Z,95169.97
2022-10-24T17:03:50.214Z,95167.19
2022-10-24T17:06:16.858Z,95167.34
2022-10-24T17:08:43.549Z,95180.63
2022-10-24T17:11:32.322Z,95192.66
2022-10-24T17:13:58.120Z,95191.00
2022-10-24T17:16:24.988Z,95197.31
2022-10-24T17:19:05.524Z,95197.75
2022-10-24T17:21:39.312Z,95197.59
2022-10-24T17:24:10.342Z,95187.75
2022-10-24T17:26:36.976Z,95190.31
2022-10-24T17:29:03.889Z,95186.47
2022-10-24T17:31:30.639Z,95184.50
2022-10-24T17:33:57.438Z,95186.47
2022-10-24T17:36:28.363Z,95189.84
2022-10-24T17:39:09.284Z,95186.78
2022-10-24T17:41:40.723Z,95180.63
2022-10-24T17:44:14.863Z,95187.75
2022-10-24T17:46:41.695Z,95190.50
2022-10-24T17:49:16.586Z,95197.44
2022-10-24T17:51:47.264Z,95192.25
2022-10-24T17:54:15.039Z,95183.19
2022-10-24T17:56:42.626Z,95187.53
2022-10-24T17:59:09.436Z,95182.84
2022-10-24T18:01:36.466Z,95173.66
2022-10-24T18:04:03.612Z,95179.94
2022-10-24T18:06:30.364Z,95182.84
2022-10-24T18:08:57.045Z,95188.03
2022-10-24T18:11:23.681Z,95185.56
2022-10-24T18:13:50.568Z,95186.06
2022-10-24T18:16:18.964Z,95180.41
2022-10-24T18:18:46.203Z,95178.94
2022-10-24T18:21:22.065Z,95170.38
2022-10-24T18:23:48.806Z,95172.63
2022-10-24T18:26:20.456Z,95169.56
2022-10-24T18:28:51.497Z,95180.22
2022-10-24T18:31:23.903Z,95166.94
2022-10-24T18:33:51.326Z,95165.13
2022-10-24T18:36:26.606Z,95168.19
2022-10-24T18:38:58.025Z,95160.88
2022-10-24T18:41:27.691Z,95163.91
2022-10-24T18:43:55.836Z,95172.81
2022-10-24T18:46:23.160Z,95183.00
2022-10-24T18:48:50.109Z,95176.22
2022-10-24T18:51:30.430Z,95180.31
2022-10-24T18:54:00.625Z,95174.47
2022-10-24T18:56:27.267Z,95160.91
2022-10-24T18:58:57.241Z,95167.56
2022-10-24T19:01:34.076Z,95149.59
2022-10-24T19:04:06.855Z,95163.31
2022-10-24T19:06:35.377Z,95155.06
2022-10-24T19:09:02.075Z,95159.72
2022-10-24T19:11:28.706Z,95151.03
2022-10-24T19:13:55.407Z,95144.75
2022-10-24T19:16:28.604Z,95143.88
2022-10-24T19:19:00.878Z,95160.72
2022-10-24T19:21:27.775Z,95163.16
2022-10-24T19:23:54.710Z,95164.13
2022-10-24T19:26:21.339Z,95172.50
2022-10-24T19:28:47.990Z,95169.25
2022-10-24T19:31:15.733Z,95164.13
2022-10-24T19:33:42.871Z,95157.34
2022-10-24T19:36:11.544Z,95160.53
2022-10-24T19:38:39.855Z,95151.97
2022-10-24T19:41:08.426Z,95145.97
2022-10-24T19:43:34.958Z,95143.97
2022-10-24T19:46:19.235Z,95140.56
2022-10-24T19:48:49.085Z,95139.25
2022-10-24T19:51:17.922Z,95161.78
2022-10-24T19:53:45.566Z,95154.69
2022-10-24T19:56:24.024Z,95148.38
2022-10-24T19:58:52.561Z,95157.03
2022-10-24T20:01:22.105Z,95151.81
2022-10-24T20:03:50.231Z,95161.00
2022-10-24T20:06:17.867Z,95163.72
2022-10-24T20:08:46.735Z,95167.41
2022-10-24T20:11:15.598Z,95165.97
2022-10-24T20:13:43.564Z,95165.44
2022-10-24T20:16:10.965Z,95166.25
2022-10-24T20:21:14.618Z,95174.91
2022-10-24T20:23:41.738Z,95170.03
2022-10-24T20:26:18.571Z,95164.50
2022-10-24T20:28:47.325Z,95170.13
2022-10-24T20:31:21.498Z,95175.22
2022-10-24T20:33:48.415Z,95169.41
2022-10-24T20:36:14.991Z,95177.72
2022-10-24T20:38:41.654Z,95172.22
2022-10-24T20:41:08.208Z,95179.88
2022-10-24T20:43:34.833Z,95182.31
2022-10-24T20:46:04.559Z,95187.38
2022-10-24T20:48:32.658Z,95194.69
2022-10-24T20:51:09.625Z,95200.50
2022-10-24T20:53:37.073Z,95202.25
2022-10-24T20:56:05.955Z,95207.00
2022-10-24T20:58:33.091Z,95208.50
2022-10-24T21:01:05.407Z,95207.81
2022-10-24T21:03:32.105Z,95214.66
2022-10-24T21:05:58.659Z,95219.03
2022-10-24T21:08:25.284Z,95215.84
2022-10-24T21:10:51.845Z,95213.41
2022-10-24T21:13:18.367Z,95210.81
2022-10-24T21:15:44.935Z,95206.91
2022-10-24T21:18:11.513Z,95206.75
2022-10-24T21:20:38.093Z,95211.13
2022-10-24T21:23:04.676Z,95210.97
2022-10-24T21:25:31.301Z,95210.69
2022-10-24T21:27:57.903Z,95223.56
2022-10-24T21:30:25.118Z,95225.88
2022-10-24T21:32:51.709Z,95220.00
2022-10-24T21:35:18.259Z,95225.97
2022-10-24T21:37:45.027Z,95223.41
2022-10-24T21:40:11.883Z,95226.50
2022-10-24T21:42:38.413Z,95226.34
2022-10-24T21:45:05.470Z,95229.13
2022-10-24T21:47:31.996Z,95232.13
2022-10-24T21:49:58.638Z,95236.25
2022-10-24T21:52:25.170Z,95242.50
2022-10-24T21:54:51.753Z,95247.94
2022-10-24T21:57:18.397Z,95243.28
2022-10-24T21:59:44.951Z,95246.25
2022-10-24T22:02:11.738Z,95254.94
2022-10-24T22:04:38.379Z,95255.09
2022-10-24T22:07:05.949Z,95264.25
2022-10-24T22:09:32.763Z,95264.56
2022-10-24T22:11:59.408Z,95264.56
2022-10-24T22:14:26.436Z,95264.41
2022-10-24T22:16:52.997Z,95271.16
2022-10-24T22:19:19.632Z,95275.72
2022-10-24T22:21:48.521Z,95275.66
2022-10-24T22:24:17.775Z,95275.34
2022-10-24T22:26:44.535Z,95287.97
2022-10-24T22:29:15.797Z,95274.88
2022-10-24T22:31:43.569Z,95293.69
2022-10-24T22:34:15.712Z,95293.50
2022-10-24T22:37:14.730Z,95294.28
2022-10-24T22:39:41.688Z,95303.97
2022-10-24T22:42:14.702Z,95327.97
2022-10-24T22:44:44.707Z,95324.81
2022-10-24T22:47:11.237Z,95318.06
2022-10-24T22:50:14.117Z,95338.19
2022-10-24T22:52:40.974Z,95338.19
2022-10-24T22:55:34.229Z,95333.72
2022-10-24T22:58:01.514Z,95333.06
2022-10-24T23:00:28.413Z,95337.28
2022-10-24T23:03:10.843Z,95333.78
2022-10-24T23:05:44.685Z,95330.16
2022-10-24T23:08:37.492Z,95329.63
2022-10-24T23:11:04.662Z,95332.03
2022-10-24T23:13:31.657Z,95332.72
2022-10-24T23:16:30.338Z,95336.09
2022-10-24T23:18:57.189Z,95340.84
2022-10-24T23:21:35.395Z,95351.00
2022-10-24T23:24:02.445Z,95357.28
2022-10-24T23:26:33.669Z,95350.59
2022-10-24T23:29:18.595Z,95355.09
2022-10-24T23:31:45.379Z,95355.41
2022-10-24T23:34:12.218Z,95350.09
2022-10-24T23:36:43.624Z,95356.19
2022-10-24T23:39:14.397Z,95363.81
2022-10-24T23:41:41.663Z,95361.31
2022-10-24T23:44:11.814Z,95363.31
2022-10-24T23:46:45.049Z,95361.31
2022-10-24T23:49:23.427Z,95356.25
2022-10-24T23:52:16.370Z,95348.63
2022-10-24T23:54:43.257Z,95347.00
2022-10-24T23:57:15.980Z,95360.66
2022-10-24T23:59:43.007Z,95351.84
